Saint Libory, NE (68872)

11:54 AM CDT on May 04, 2015 (GMT -0500)
Central Nebraska Regional | | Change Station
CLOSE
Current Station
Airport
Location: Grand Island,
Elevation: 1857 ft
Nearby Weather Stations

Elev 1857 ft 40.96 °N, 98.31 °W | Updated 11 minutes ago

Overcast
Overcast
50 °F
Feels Like 50 °F
N
13
Wind Variable Wind from NNE

Today
High -- | Low -- °F
--% Chance of Precip.
Yesterday
High -- | Low -- °F
Precip. -- in
6:27 AM 8:33 PM
Full, 100% visible
Pressure 30.13 in
Visibility 1.2 miles
Clouds Scattered Clouds 2800 ft
Overcast 3300 ft
Dew Point 47 °F
Humidity 89%
Rainfall 0.00 in
Snow Depth Not available.
UV 3 out of 12
Pollen 6.30 out of 12
Air Quality Not available.
Flu Activity Local Activity
SPECI KGRI 041643Z 02011KT 1 1/4SM R35/5000VP6000FT +RA BR SCT028 OVC033 10/08 A3013 RMK AO2 P0063 T01000083

More Conditions Fewer Conditions

Pressure 30.13 in
Visibility 1.2 miles
Clouds Scattered Clouds 2800 ft
Overcast 3300 ft
Dew Point 47 °F
Humidity 89%
Rainfall 0.00 in
Snow Depth Not available.
UV 3 out of 12
Pollen 6.30 out of 12
Air Quality Not available.
Flu Activity Local Activity
SPECI KGRI 041643Z 02011KT 1 1/4SM R35/5000VP6000FT +RA BR SCT028 OVC033 10/08 A3013 RMK AO2 P0063 T01000083

More Conditions Fewer Conditions

Nepal has a long way to go to dig out and rebuild from a devastating earthquake. We have teamed up with several charities and organizations to make contributing to the relief effort as easy as possible.
How you can help: Portlight Strategies | Red Cross

10-Day Weather Forecast

Almanac

Astronomy

May. 04, 2015 Rise Set
Actual Time
Civil Twilight
Nautical Twilight
Astronomical Twilight
Moon
Length of Visible Light
Length of Day
Tomorrow will be .
, % of the Moon is Illuminated

Today's Extremes

State Highs State Lows

Community

WunderPhotos

Upload Photos

1,818,645 photos uploaded!

WunderBlogs® & News

Nearby

Air Quality

  Air Quality AQ Index Pollutant
Not available.

Snow Depth

Station Depth Elevation

Earthquake Activity

City Distance Mag. Time & Date
Minimum magnitude displayed is 2.5.

Coastal Water Temperatures

Place Temperature

Stations

Nearby Weather Stations

Station Location Temp. Windchill Dew Point Humidity Wind Precip. Elev Updated Type